Wednesday, August 20, 2014, 12:50 AM EDT

KRIC, Richmond International Airport

Location: Sandston, VA, United States Lat: 37.517
Local Time: 12:50 AM EDT ( 4:50 GMT) Lon: -77.317
Time Zone: US/Eastern Elev: 167 ft

Show me the last for .
Show Decoded

2014-08-19 23:54 METAR KRIC 200354Z 11003KT 10SM SCT030 BKN150 23/22 A2992 =
2014-08-19 22:54 METAR KRIC 200254Z 10004KT 10SM BKN032 BKN150 24/22 A2991 RMK AO2 SLP132
                 T02390217 51018 =
2014-08-19 21:54 METAR KRIC 200154Z 00000KT 10SM SCT016 SCT024 BKN150 24/22 A2991 RMK AO2 SLP132
                 T02440217 =
2014-08-19 20:54 METAR KRIC 200054Z 00000KT 10SM FEW020 BKN110 BKN250 24/22 A2988 RMK AO2 SLP120
                 T02440217 =
2014-08-19 19:54 METAR KRIC 192354Z 08004KT 10SM SCT018 BKN110 BKN250 26/22 A2986 RMK AO2 SLP115
                 60000 T02560217 10294 20256 53008 =
2014-08-19 18:54 METAR KRIC 192254Z 05006KT 10SM FEW020 BKN100 27/21 A2985 =
2014-08-19 18:24 METAR KRIC 192224Z 05008KT 10SM SCT022 BKN100 27/22 A2985 RMK AO2 =
2014-08-19 18:15 METAR KRIC 192215Z 06009KT 10SM BKN024 BKN100 27/22 A2985 RMK AO2 =
2014-08-19 17:54 METAR KRIC 192154Z 05006KT 10SM SCT020 BKN070 BKN095 28/22 A2985 RMK AO2 SLP110
                 T02780217 =
2014-08-19 16:54 METAR KRIC 192054Z 07006KT 10SM SCT045 BKN060 BKN085 27/23 A2984 =
2014-08-19 15:54 METAR KRIC 191954Z 07007KT 10SM SCT043 BKN055 BKN085 28/22 A2983 RMK AO2 SLP106
                 T02780217 =
2014-08-19 14:54 METAR KRIC 191854Z 08009KT 10SM SCT036 BKN060 OVC150 27/21 A2984 RMK AO2 SLP108
                 T02720211 =
2014-08-19 13:54 METAR KRIC 191754Z 01008KT 10SM SCT033 BKN042 BKN060 29/21 A2984 =
2014-08-19 12:54 METAR KRIC 191654Z 03005KT 10SM SCT025 BKN044 29/21 A2984 RMK AO2 SLP108
                 T02890206 =
2014-08-19 11:54 METAR KRIC 191554Z 36004KT 10SM SCT022 BKN044 28/21 A2985 RMK AO2 SLP110
                 T02830206 =
2014-08-19 10:54 METAR KRIC 191454Z 36006KT 10SM SCT016 BKN044 26/21 A2986 RMK AO2 SLP113
                 T02610211 53010 =
2014-08-19 09:54 METAR KRIC 191354Z VRB03KT 10SM SCT009 BKN038 BKN085 26/21 A2985 RMK AO2 SLP111
                 T02560211 =
2014-08-19 08:54 METAR KRIC 191254Z 02006KT 10SM SCT005 BKN055 BKN085 24/21 A2983 RMK AO2 SLP104
                 T02390211 =
2014-08-19 08:36 METAR KRIC 191236Z 01003KT 9SM SCT005 BKN055 BKN085 23/21 A2983 RMK AO2 =
2014-08-19 08:16 METAR KRIC 191216Z 02003KT 8SM BKN005 BKN055 23/21 A2983 RMK AO2 =
2014-08-19 07:54 METAR KRIC 191154Z 00000KT 6SM BR FEW003 BKN055 23/21 A2982 RMK AO2 SLP102 60037
                 70063 T02280211 10228 20222 53018 =
2014-08-19 07:21 METAR KRIC 191121Z 03004KT 5SM BR SCT003 BKN050 BKN090 22/21 A2981 RMK AO2 =
2014-08-19 06:54 METAR KRIC 191054Z 02005KT 4SM BR BKN003 OVC050 22/21 A2980 RMK AO2 SLP095
                 T02220211 =
2014-08-19 05:54 METAR KRIC 190954Z 02005KT 4SM BR OVC003 22/21 A2979 =
2014-08-19 04:54 METAR KRIC 190854Z 06005KT 4SM BR OVC003 22/21 A2977 RMK AO2 RAE0758 SLP084
                 P0000 60037 T02220211 55011 =
2014-08-19 04:00 METAR KRIC 190800Z 05006KT 5SM BR BKN003 OVC060 22/21 A2977 RMK AO2 RAE0758
                 P0000 =
2014-08-19 03:54 METAR KRIC 190754Z 04006KT 5SM -RA BR SCT003 BKN060 OVC110 22/21 A2977 RMK AO2
                 SLP084 P0020 T02220211 =
2014-08-19 03:15 METAR KRIC 190715Z 04007KT 2 1/2SM +RA BR SCT006 BKN040 OVC065 22/21 A2978 RMK
                 AO2 P0015 =
2014-08-19 02:54 METAR KRIC 190654Z 04004KT 2SM +RA BR BKN005 OVC030 22/21 A2979 RMK AO2 SLP090
                 P0017 T02220211 =
2014-08-19 01:54 METAR KRIC 190554Z 05004KT 4SM -RA BR BKN006 OVC075 22/21 A2980 RMK AO2 SLP094
                 P0001 60001 T02220211 10239 20222 58005 =
2014-08-19 01:52 METAR KRIC 190552Z 05004KT 4SM -RA BR BKN006 OVC075 22/21 A2980 RMK AO2 P0001 =
2014-08-19 00:54 METAR KRIC 190454Z 06003KT 7SM -RA FEW005 BKN040 OVC070 23/21 A2982 RMK AO2
                 RAB30 SLP100 P0000 T02280211 402940206 =

Support USWX by starting your Amazon purchase here.